createdAt,value
2023-01-13T00:00:21.152Z,9.80
2023-01-13T00:01:25.417Z,9.90
2023-01-13T00:02:27.625Z,9.90
2023-01-13T00:03:29.324Z,9.90
2023-01-13T00:04:31.734Z,9.90
2023-01-13T00:05:33.673Z,9.90
2023-01-13T00:06:35.563Z,9.80
2023-01-13T00:07:40.005Z,9.80
2023-01-13T00:08:41.912Z,9.80
2023-01-13T00:09:43.590Z,9.80
2023-01-13T00:10:48.348Z,9.80
2023-01-13T00:11:50.016Z,9.80
2023-01-13T00:12:53.433Z,9.80
2023-01-13T00:13:55.806Z,9.80
2023-01-13T00:14:57.479Z,9.80
2023-01-13T00:16:00.919Z,9.80
2023-01-13T00:17:03.545Z,9.70
2023-01-13T00:18:05.257Z,9.80
2023-01-13T00:19:06.939Z,9.90
2023-01-13T00:20:10.188Z,9.90
2023-01-13T00:21:13.254Z,9.90
2023-01-13T00:22:14.992Z,9.90
2023-01-13T00:23:16.679Z,9.90
2023-01-13T00:24:18.343Z,9.90
2023-01-13T00:25:20.024Z,10.00
2023-01-13T00:26:25.235Z,9.90
2023-01-13T00:27:27.403Z,10.00
2023-01-13T00:28:29.560Z,10.00
2023-01-13T00:29:31.260Z,10.00
2023-01-13T00:30:34.065Z,10.00
2023-01-13T00:31:35.811Z,10.00
2023-01-13T00:32:38.442Z,10.00
2023-01-13T00:33:40.210Z,10.00
2023-01-13T00:34:41.901Z,9.90
2023-01-13T00:35:43.560Z,10.00
2023-01-13T00:36:45.289Z,9.90
2023-01-13T00:37:47.032Z,9.90
2023-01-13T00:38:48.848Z,9.90
2023-01-13T00:39:53.367Z,9.90
2023-01-13T00:40:59.354Z,9.90
2023-01-13T00:42:19.645Z,9.80
2023-01-13T00:43:24.250Z,9.80
2023-01-13T00:44:25.943Z,9.90
2023-01-13T00:45:27.683Z,9.80
2023-01-13T00:46:29.443Z,9.80
2023-01-13T00:47:31.654Z,9.80
2023-01-13T00:48:34.251Z,9.80
2023-01-13T00:49:35.927Z,9.80
2023-01-13T00:50:37.592Z,9.80
2023-01-13T00:51:39.257Z,9.80
2023-01-13T00:52:42.271Z,9.80
2023-01-13T00:53:46.913Z,9.80
2023-01-13T00:54:48.602Z,9.90
2023-01-13T00:55:50.380Z,9.80
2023-01-13T00:56:52.059Z,9.80
2023-01-13T00:57:53.759Z,9.80
2023-01-13T00:58:58.694Z,9.80
2023-01-13T01:00:00.403Z,9.80
2023-01-13T01:01:04.607Z,9.80
2023-01-13T01:02:06.636Z,9.80
2023-01-13T01:03:12.274Z,9.90
2023-01-13T01:04:14.085Z,9.80
2023-01-13T01:05:15.864Z,9.90
2023-01-13T01:06:28.111Z,9.90
2023-01-13T01:07:29.799Z,9.90
2023-01-13T01:08:31.570Z,9.90
2023-01-13T01:09:34.636Z,9.90
2023-01-13T01:10:36.352Z,9.90
2023-01-13T01:11:38.047Z,9.90
2023-01-13T01:12:39.782Z,10.00
2023-01-13T01:13:42.184Z,9.90
2023-01-13T01:14:43.987Z,10.10
2023-01-13T01:15:47.671Z,10.00
2023-01-13T01:16:49.904Z,9.90
2023-01-13T01:17:51.629Z,9.90
2023-01-13T01:18:54.489Z,9.90
2023-01-13T01:19:56.306Z,9.80
2023-01-13T01:21:00.291Z,9.90
2023-01-13T01:22:02.046Z,9.80
2023-01-13T01:23:04.209Z,9.90
2023-01-13T01:24:06.293Z,9.80
2023-01-13T01:25:08.621Z,9.80
2023-01-13T01:26:14.644Z,9.80
2023-01-13T01:27:16.431Z,9.90
2023-01-13T01:28:19.362Z,9.90
2023-01-13T01:29:21.067Z,9.90
2023-01-13T01:30:22.792Z,9.90
2023-01-13T01:31:27.051Z,9.90
2023-01-13T01:32:28.802Z,9.90
2023-01-13T01:33:30.465Z,9.90
2023-01-13T01:34:32.244Z,10.00
2023-01-13T01:35:33.953Z,10.00
2023-01-13T01:36:36.593Z,9.90
2023-01-13T01:37:38.294Z,10.00
2023-01-13T01:38:40.322Z,10.00
2023-01-13T01:39:41.998Z,9.90
2023-01-13T01:40:43.691Z,9.90
2023-01-13T01:42:05.525Z,10.00
2023-01-13T01:43:34.967Z,9.90
2023-01-13T01:44:42.513Z,9.90
2023-01-13T01:45:44.209Z,10.00
2023-01-13T01:46:45.890Z,10.00
2023-01-13T01:47:57.403Z,10.00
2023-01-13T01:49:32.512Z,10.00
2023-01-13T01:50:35.571Z,10.00
2023-01-13T01:51:43.703Z,9.90
2023-01-13T01:52:49.910Z,9.90
2023-01-13T01:53:53.399Z,10.00
2023-01-13T01:55:17.250Z,10.00
2023-01-13T01:56:20.265Z,10.00
2023-01-13T01:57:35.810Z,10.00
2023-01-13T01:58:51.133Z,10.00
2023-01-13T01:59:53.351Z,10.10
2023-01-13T02:00:55.687Z,10.10
2023-01-13T02:01:57.556Z,10.10
2023-01-13T02:03:00.450Z,10.10
2023-01-13T02:04:09.645Z,10.10
2023-01-13T02:05:11.634Z,10.10
2023-01-13T02:06:14.793Z,10.10
2023-01-13T02:07:38.377Z,10.10
2023-01-13T02:08:40.756Z,10.00
2023-01-13T02:09:42.682Z,10.00
2023-01-13T02:10:48.868Z,10.00
2023-01-13T02:12:09.312Z,10.10
2023-01-13T02:13:12.646Z,10.10
2023-01-13T02:14:14.608Z,10.00
2023-01-13T02:15:39.413Z,10.10
2023-01-13T02:16:48.906Z,10.10
2023-01-13T02:18:02.609Z,10.10
2023-01-13T02:19:41.239Z,10.10
2023-01-13T02:20:56.734Z,10.10
2023-01-13T02:22:10.198Z,10.10
2023-01-13T02:23:55.137Z,10.10
2023-01-13T02:25:13.128Z,10.10
2023-01-13T02:26:37.984Z,10.10
2023-01-13T02:27:42.444Z,10.10
2023-01-13T02:29:23.925Z,10.10
2023-01-13T02:31:04.580Z,10.10
2023-01-13T02:32:17.383Z,10.10
2023-01-13T02:33:38.204Z,10.10
2023-01-13T02:34:46.521Z,10.10
2023-01-13T02:35:57.249Z,10.20
2023-01-13T02:37:15.805Z,10.10
2023-01-13T02:38:25.113Z,10.10
2023-01-13T02:39:57.145Z,10.10
2023-01-13T02:41:27.686Z,10.20
2023-01-13T02:42:52.268Z,10.10
2023-01-13T02:44:07.518Z,10.10
2023-01-13T02:45:18.863Z,10.10
2023-01-13T02:46:49.336Z,10.10
2023-01-13T02:47:55.762Z,10.10
2023-01-13T02:49:04.380Z,10.10
2023-01-13T02:50:17.876Z,10.10
2023-01-13T02:51:24.156Z,10.00
2023-01-13T02:52:34.712Z,10.00
2023-01-13T02:53:43.134Z,10.00
2023-01-13T02:54:52.795Z,9.90
2023-01-13T02:55:57.517Z,10.00
2023-01-13T02:57:00.984Z,10.00
2023-01-13T02:58:06.279Z,10.00
2023-01-13T02:59:10.582Z,10.00
2023-01-13T03:00:14.468Z,10.00
2023-01-13T03:01:17.027Z,10.00
2023-01-13T03:02:21.490Z,10.00
2023-01-13T03:03:23.709Z,10.00
2023-01-13T03:04:51.150Z,10.00
2023-01-13T03:06:00.496Z,10.00
2023-01-13T03:07:12.906Z,10.00
2023-01-13T03:08:17.934Z,10.00
2023-01-13T03:09:27.148Z,10.00
2023-01-13T03:10:50.009Z,10.00
2023-01-13T03:12:19.149Z,10.00
2023-01-13T03:13:48.730Z,10.00
2023-01-13T03:15:11.459Z,10.00
2023-01-13T03:16:48.062Z,10.00
2023-01-13T03:18:01.554Z,10.00
2023-01-13T03:19:25.172Z,10.10
2023-01-13T03:20:33.472Z,10.10
2023-01-13T03:21:47.597Z,10.10
2023-01-13T03:22:57.526Z,10.10
2023-01-13T03:24:09.053Z,10.10
2023-01-13T03:25:26.111Z,10.10
2023-01-13T03:26:38.187Z,10.10
2023-01-13T03:27:54.383Z,10.10
2023-01-13T03:29:14.798Z,10.10
2023-01-13T03:30:42.483Z,10.20
2023-01-13T03:31:55.928Z,10.20
2023-01-13T03:33:04.092Z,10.20
2023-01-13T03:34:13.591Z,10.10
2023-01-13T03:35:27.826Z,10.20
2023-01-13T03:36:32.385Z,10.20
2023-01-13T03:37:38.991Z,10.10
2023-01-13T03:38:50.359Z,10.20
2023-01-13T03:39:59.206Z,10.10
2023-01-13T03:41:08.847Z,10.10
2023-01-13T03:42:17.011Z,10.10
2023-01-13T03:43:46.425Z,10.10
2023-01-13T03:44:55.318Z,10.10
2023-01-13T03:46:03.458Z,10.00
2023-01-13T03:47:29.269Z,10.00
2023-01-13T03:48:34.202Z,10.00
2023-01-13T03:49:35.922Z,10.10
2023-01-13T03:50:47.260Z,10.10
2023-01-13T03:51:54.548Z,10.10
2023-01-13T03:53:11.070Z,10.10
2023-01-13T03:54:15.527Z,10.10
2023-01-13T03:55:24.546Z,10.10
2023-01-13T03:56:54.731Z,10.00
2023-01-13T03:58:06.806Z,10.00
2023-01-13T03:59:15.404Z,10.00
2023-01-13T04:00:18.311Z,10.00
2023-01-13T04:01:32.295Z,10.00
2023-01-13T04:02:42.169Z,10.00
2023-01-13T04:03:49.949Z,10.10
2023-01-13T04:05:04.155Z,10.10
2023-01-13T04:06:15.961Z,10.00
2023-01-13T04:07:41.849Z,10.00
2023-01-13T04:08:53.592Z,10.00
2023-01-13T04:09:58.131Z,10.00
2023-01-13T04:11:14.546Z,10.00
2023-01-13T04:12:51.352Z,10.00
2023-01-13T04:13:54.451Z,10.00
2023-01-13T04:14:56.478Z,9.90
2023-01-13T04:16:00.492Z,9.90
2023-01-13T04:17:02.325Z,9.90
2023-01-13T04:18:18.111Z,9.90
2023-01-13T04:19:19.851Z,9.90
2023-01-13T04:20:21.620Z,9.90
2023-01-13T04:21:23.460Z,9.90
2023-01-13T04:22:25.220Z,10.00
2023-01-13T04:23:28.586Z,9.90
2023-01-13T04:24:30.345Z,9.90
2023-01-13T04:25:32.350Z,9.90
2023-01-13T04:26:34.090Z,10.00
2023-01-13T04:27:35.896Z,9.90
2023-01-13T04:28:37.656Z,9.90
2023-01-13T04:29:39.391Z,9.90
2023-01-13T04:30:42.241Z,9.90
2023-01-13T04:31:44.304Z,9.90
2023-01-13T04:32:46.010Z,9.90
2023-01-13T04:33:47.755Z,9.90
2023-01-13T04:34:49.464Z,9.90
2023-01-13T04:35:52.582Z,9.90
2023-01-13T04:36:54.346Z,9.90
2023-01-13T04:37:56.121Z,9.90
2023-01-13T04:38:57.848Z,9.90
2023-01-13T04:39:59.541Z,9.90
2023-01-13T04:41:01.378Z,10.00
2023-01-13T04:42:03.118Z,10.00
2023-01-13T04:43:05.456Z,10.00
2023-01-13T04:44:07.190Z,10.00
2023-01-13T04:45:09.487Z,10.00
2023-01-13T04:46:11.346Z,10.00
2023-01-13T04:47:13.016Z,10.00
2023-01-13T04:48:14.873Z,10.00
2023-01-13T04:49:16.564Z,10.00
2023-01-13T04:50:19.852Z,10.00
2023-01-13T04:51:21.568Z,10.00
2023-01-13T04:52:23.262Z,10.00
2023-01-13T04:53:25.155Z,10.10
2023-01-13T04:54:26.862Z,10.10
2023-01-13T04:55:28.615Z,10.10
2023-01-13T04:56:30.726Z,10.10
2023-01-13T04:57:34.848Z,10.10
2023-01-13T04:58:36.534Z,10.10
2023-01-13T04:59:38.188Z,10.10
2023-01-13T05:00:39.963Z,10.10
2023-01-13T05:01:42.048Z,10.10
2023-01-13T05:02:43.931Z,10.00
2023-01-13T05:03:45.601Z,10.10
2023-01-13T05:04:48.320Z,10.00
2023-01-13T05:05:52.218Z,10.00
2023-01-13T05:06:53.963Z,10.00
2023-01-13T05:07:55.953Z,9.90
2023-01-13T05:08:57.804Z,9.90
2023-01-13T05:09:59.563Z,10.00
2023-01-13T05:11:01.999Z,9.90
2023-01-13T05:12:22.439Z,10.00
2023-01-13T05:13:42.689Z,10.00
2023-01-13T05:15:03.340Z,10.00
2023-01-13T05:16:24.040Z,10.00
2023-01-13T05:17:26.552Z,10.10
2023-01-13T05:18:30.661Z,10.10
2023-01-13T05:19:34.690Z,10.10
2023-01-13T05:20:36.495Z,10.20
2023-01-13T05:21:57.361Z,10.20
2023-01-13T05:23:17.618Z,10.20
2023-01-13T05:24:38.220Z,10.20
2023-01-13T05:25:44.132Z,10.20
2023-01-13T05:26:46.066Z,10.20
2023-01-13T05:27:48.981Z,10.30
2023-01-13T05:28:50.710Z,10.30
2023-01-13T05:29:52.785Z,10.30
2023-01-13T05:30:54.567Z,10.20
2023-01-13T05:31:56.329Z,10.20
2023-01-13T05:32:58.328Z,10.30
2023-01-13T05:34:00.081Z,10.30
2023-01-13T05:35:01.798Z,10.30
2023-01-13T05:36:04.223Z,10.30
2023-01-13T05:37:07.906Z,10.30
2023-01-13T05:38:10.380Z,10.40
2023-01-13T05:39:12.052Z,10.40
2023-01-13T05:40:35.291Z,10.30
2023-01-13T05:41:55.881Z,10.30
2023-01-13T05:43:21.867Z,10.30
2023-01-13T05:44:23.635Z,10.30
2023-01-13T05:45:25.669Z,10.30
2023-01-13T05:46:27.443Z,10.30
2023-01-13T05:47:29.214Z,10.30
2023-01-13T05:48:36.253Z,10.30
2023-01-13T05:49:37.949Z,10.30
2023-01-13T05:50:40.118Z,10.30
2023-01-13T05:51:42.276Z,10.30
2023-01-13T05:52:44.184Z,10.30
2023-01-13T05:53:45.923Z,10.20
2023-01-13T05:54:47.608Z,10.20
2023-01-13T05:55:50.508Z,10.20
2023-01-13T05:56:52.181Z,10.20
2023-01-13T05:57:53.877Z,10.20
2023-01-13T05:58:55.893Z,10.20
2023-01-13T05:59:57.582Z,10.20
2023-01-13T06:01:01.634Z,10.20
2023-01-13T06:02:03.404Z,10.20
2023-01-13T06:03:05.924Z,10.20
2023-01-13T06:04:07.703Z,10.20
2023-01-13T06:05:09.547Z,10.20
2023-01-13T06:06:11.385Z,10.30
2023-01-13T06:07:13.087Z,10.30
2023-01-13T06:08:15.299Z,10.20
2023-01-13T06:09:17.223Z,10.20
2023-01-13T06:10:19.053Z,10.20
2023-01-13T06:11:20.780Z,10.20
2023-01-13T06:12:22.457Z,10.20
2023-01-13T06:13:25.373Z,10.10
2023-01-13T06:14:39.885Z,10.10
2023-01-13T06:15:41.569Z,10.10
2023-01-13T06:16:45.374Z,10.10
2023-01-13T06:17:47.511Z,10.20
2023-01-13T06:18:49.182Z,10.20
2023-01-13T06:19:53.545Z,10.20
2023-01-13T06:20:56.121Z,10.20
2023-01-13T06:21:58.075Z,10.20
2023-01-13T06:23:00.931Z,10.20
2023-01-13T06:24:02.698Z,10.20
2023-01-13T06:25:06.955Z,10.30
2023-01-13T06:26:16.172Z,10.30
2023-01-13T06:27:18.450Z,10.30
2023-01-13T06:28:20.164Z,10.30
2023-01-13T06:29:21.856Z,10.20
2023-01-13T06:30:23.767Z,10.20
2023-01-13T06:31:26.281Z,10.20
2023-01-13T06:32:34.087Z,10.20
2023-01-13T06:33:48.255Z,10.20
2023-01-13T06:34:58.393Z,10.20
2023-01-13T06:36:04.409Z,10.20
2023-01-13T06:37:06.562Z,10.30
2023-01-13T06:38:12.707Z,10.30
2023-01-13T06:39:18.260Z,10.30
2023-01-13T06:40:20.135Z,10.30
2023-01-13T06:41:42.211Z,10.30
2023-01-13T06:43:02.496Z,10.30
2023-01-13T06:44:04.294Z,10.30
2023-01-13T06:45:06.470Z,10.30
2023-01-13T06:46:08.440Z,10.30
2023-01-13T06:47:10.481Z,10.40
2023-01-13T06:48:12.412Z,10.30
2023-01-13T06:49:14.115Z,10.30
2023-01-13T06:50:20.853Z,10.30
2023-01-13T06:51:22.644Z,10.30
2023-01-13T06:52:24.493Z,10.30
2023-01-13T06:53:26.612Z,10.30
2023-01-13T06:54:28.339Z,10.20
2023-01-13T06:55:30.056Z,10.20
2023-01-13T06:56:31.774Z,10.20
2023-01-13T06:57:33.474Z,10.20
2023-01-13T06:58:35.283Z,10.20
2023-01-13T06:59:37.064Z,10.20
2023-01-13T07:00:38.879Z,10.20
2023-01-13T07:01:40.794Z,10.10
2023-01-13T07:02:42.637Z,10.10
2023-01-13T07:03:44.431Z,10.10
2023-01-13T07:04:46.800Z,10.10
2023-01-13T07:05:56.058Z,10.00
2023-01-13T07:06:57.944Z,10.10
2023-01-13T07:07:59.615Z,10.10
2023-01-13T07:09:01.329Z,10.10
2023-01-13T07:10:03.829Z,10.10
2023-01-13T07:11:05.879Z,10.10
2023-01-13T07:12:07.763Z,10.20
2023-01-13T07:13:28.014Z,10.20
2023-01-13T07:14:48.295Z,10.20
2023-01-13T07:16:08.954Z,10.20
2023-01-13T07:17:10.655Z,10.20
2023-01-13T07:18:12.353Z,10.20
2023-01-13T07:19:14.129Z,10.20
2023-01-13T07:20:16.750Z,10.20
2023-01-13T07:21:20.026Z,10.10
2023-01-13T07:22:21.808Z,10.10
2023-01-13T07:23:24.762Z,10.10
2023-01-13T07:24:26.627Z,10.10
2023-01-13T07:25:28.413Z,10.10
2023-01-13T07:26:30.187Z,10.10
2023-01-13T07:27:31.876Z,10.10
2023-01-13T07:28:33.902Z,10.00
2023-01-13T07:29:37.249Z,10.00
2023-01-13T07:30:39.112Z,10.00
2023-01-13T07:31:40.907Z,10.00
2023-01-13T07:32:42.612Z,10.00
2023-01-13T07:33:44.959Z,10.00
2023-01-13T07:34:46.861Z,10.00
2023-01-13T07:35:55.228Z,10.00
2023-01-13T07:36:56.995Z,10.00
2023-01-13T07:37:58.731Z,9.90
2023-01-13T07:39:00.461Z,9.80
2023-01-13T07:40:05.739Z,9.90
2023-01-13T07:41:26.424Z,9.90
2023-01-13T07:42:46.978Z,9.90
2023-01-13T07:43:48.809Z,10.00
2023-01-13T07:44:50.602Z,10.00
2023-01-13T07:45:58.548Z,9.90
2023-01-13T07:47:00.933Z,9.90
2023-01-13T07:48:02.676Z,9.90
2023-01-13T07:49:05.507Z,9.90
2023-01-13T07:50:09.094Z,9.90
2023-01-13T07:51:12.322Z,9.90
2023-01-13T07:52:14.078Z,9.90
2023-01-13T07:53:15.779Z,9.90
2023-01-13T07:54:19.332Z,9.90
2023-01-13T07:55:21.164Z,9.90
2023-01-13T07:56:23.136Z,9.90
2023-01-13T07:57:24.966Z,9.80
2023-01-13T07:58:27.747Z,9.90
2023-01-13T07:59:29.710Z,9.90
2023-01-13T08:00:31.472Z,9.90
2023-01-13T08:01:33.341Z,9.80
2023-01-13T08:02:35.151Z,9.80
2023-01-13T08:03:37.093Z,9.80
2023-01-13T08:04:39.352Z,9.80
2023-01-13T08:05:41.340Z,9.80
2023-01-13T08:06:43.071Z,9.90
2023-01-13T08:07:44.859Z,9.90
2023-01-13T08:08:46.648Z,9.80
2023-01-13T08:09:48.460Z,9.90
2023-01-13T08:10:50.199Z,9.90
2023-01-13T08:12:14.399Z,9.90
2023-01-13T08:13:19.653Z,9.90
2023-01-13T08:14:21.401Z,10.00
2023-01-13T08:15:23.068Z,9.90
2023-01-13T08:16:25.036Z,9.90
2023-01-13T08:17:26.853Z,9.90
2023-01-13T08:18:28.840Z,10.00
2023-01-13T08:19:30.582Z,10.00
2023-01-13T08:20:32.437Z,10.00
2023-01-13T08:21:34.153Z,10.00
2023-01-13T08:22:35.922Z,10.00
2023-01-13T08:23:38.060Z,10.00
2023-01-13T08:24:39.821Z,10.00
2023-01-13T08:25:41.544Z,10.10
2023-01-13T08:26:43.273Z,10.10
2023-01-13T08:27:44.971Z,10.10
2023-01-13T08:28:46.759Z,10.10
2023-01-13T08:29:48.504Z,10.20
2023-01-13T08:30:52.936Z,10.20
2023-01-13T08:31:54.718Z,10.20
2023-01-13T08:32:56.457Z,10.30
2023-01-13T08:33:58.122Z,10.30
2023-01-13T08:34:59.866Z,10.30
2023-01-13T08:36:07.013Z,10.40
2023-01-13T08:37:08.855Z,10.40
2023-01-13T08:38:10.598Z,10.40
2023-01-13T08:39:12.300Z,10.40
2023-01-13T08:40:15.826Z,10.40
2023-01-13T08:41:40.550Z,10.40
2023-01-13T08:42:42.318Z,10.40
2023-01-13T08:43:44.009Z,10.40
2023-01-13T08:44:45.690Z,10.30
2023-01-13T08:45:56.716Z,10.30
2023-01-13T08:46:58.551Z,10.30
2023-01-13T08:48:00.254Z,10.20
2023-01-13T08:49:02.216Z,10.20
2023-01-13T08:50:04.480Z,10.20
2023-01-13T08:51:08.822Z,10.20
2023-01-13T08:52:10.651Z,10.20
2023-01-13T08:53:12.360Z,10.20
2023-01-13T08:54:15.305Z,10.10
2023-01-13T08:55:17.139Z,10.20
2023-01-13T08:56:18.869Z,10.20
2023-01-13T08:57:20.675Z,10.10
2023-01-13T08:58:22.536Z,10.10
2023-01-13T08:59:24.269Z,10.10
2023-01-13T09:00:25.978Z,10.00
2023-01-13T09:01:28.137Z,10.10
2023-01-13T09:02:30.071Z,10.10
2023-01-13T09:03:31.844Z,10.10
2023-01-13T09:04:33.613Z,10.10
2023-01-13T09:05:36.064Z,10.10
2023-01-13T09:06:37.737Z,10.10
2023-01-13T09:07:39.941Z,10.10
2023-01-13T09:08:41.734Z,10.10
2023-01-13T09:09:43.775Z,10.10
2023-01-13T09:10:45.569Z,10.10
2023-01-13T09:12:08.862Z,10.10
2023-01-13T09:13:14.235Z,10.00
2023-01-13T09:14:24.903Z,10.00
2023-01-13T09:15:26.610Z,10.00
2023-01-13T09:16:28.313Z,10.00
2023-01-13T09:17:30.049Z,10.00
2023-01-13T09:18:31.787Z,9.90
2023-01-13T09:19:33.838Z,10.00
2023-01-13T09:20:35.811Z,10.00
2023-01-13T09:21:37.593Z,10.00
2023-01-13T09:22:40.662Z,9.90
2023-01-13T09:23:42.397Z,9.90
2023-01-13T09:24:45.185Z,9.90
2023-01-13T09:25:47.152Z,9.90
2023-01-13T09:26:49.112Z,9.90
2023-01-13T09:27:50.916Z,9.90
2023-01-13T09:28:52.648Z,9.70
2023-01-13T09:29:54.328Z,9.70
2023-01-13T09:31:01.297Z,9.70
2023-01-13T09:32:03.275Z,9.60
2023-01-13T09:33:23.666Z,9.60
2023-01-13T09:34:44.110Z,9.50
2023-01-13T09:35:45.863Z,9.50
2023-01-13T09:36:47.686Z,9.40
2023-01-13T09:37:49.373Z,9.40
2023-01-13T09:38:51.161Z,9.30
2023-01-13T09:39:52.826Z,9.30
2023-01-13T09:40:55.690Z,9.30
2023-01-13T09:42:20.677Z,9.20
2023-01-13T09:43:47.027Z,9.20
2023-01-13T09:44:55.801Z,9.30
2023-01-13T09:46:36.602Z,9.20
2023-01-13T09:47:58.617Z,9.30
2023-01-13T09:49:03.634Z,9.20
2023-01-13T09:50:14.474Z,9.20
2023-01-13T09:51:27.882Z,9.20
2023-01-13T09:52:29.753Z,9.20
2023-01-13T09:53:38.930Z,9.30
2023-01-13T09:55:04.329Z,9.30
2023-01-13T09:56:06.525Z,9.30
2023-01-13T09:57:11.931Z,9.30
2023-01-13T09:58:18.476Z,9.30
2023-01-13T09:59:20.237Z,9.30
2023-01-13T10:00:25.618Z,9.40
2023-01-13T10:01:29.594Z,9.30
2023-01-13T10:03:01.645Z,9.30
2023-01-13T10:04:09.356Z,9.40
2023-01-13T10:05:42.333Z,9.40
2023-01-13T10:06:49.727Z,9.40
2023-01-13T10:07:57.193Z,9.30
2023-01-13T10:08:59.169Z,9.40
2023-01-13T10:10:03.853Z,9.40
2023-01-13T10:11:32.537Z,9.40
2023-01-13T10:12:53.088Z,9.40
2023-01-13T10:13:59.602Z,9.40
2023-01-13T10:15:01.472Z,9.40
2023-01-13T10:16:28.028Z,9.30
2023-01-13T10:17:47.355Z,9.30
2023-01-13T10:19:22.722Z,9.20
2023-01-13T10:20:39.880Z,9.20
2023-01-13T10:21:56.779Z,9.20
2023-01-13T10:23:09.217Z,9.20
2023-01-13T10:24:13.940Z,9.20
2023-01-13T10:25:30.697Z,9.20
2023-01-13T10:27:17.164Z,9.20
2023-01-13T10:28:19.663Z,9.20
2023-01-13T10:29:25.194Z,9.20
2023-01-13T10:30:34.133Z,9.20
2023-01-13T10:31:35.867Z,9.20
2023-01-13T10:32:37.581Z,9.20
2023-01-13T10:33:39.335Z,9.20
2023-01-13T10:34:52.099Z,9.20
2023-01-13T10:36:01.810Z,9.20
2023-01-13T10:37:10.734Z,9.20
2023-01-13T10:38:20.121Z,9.30
2023-01-13T10:39:21.858Z,9.30
2023-01-13T10:40:23.538Z,9.40
2023-01-13T10:41:27.522Z,9.40
2023-01-13T10:42:29.277Z,9.40
2023-01-13T10:43:32.215Z,9.50
2023-01-13T10:44:49.356Z,9.50
2023-01-13T10:46:05.982Z,9.60
2023-01-13T10:47:23.108Z,9.60
2023-01-13T10:48:52.079Z,9.60
2023-01-13T10:50:09.772Z,9.70
2023-01-13T10:51:27.280Z,9.60
2023-01-13T10:52:32.607Z,9.60
2023-01-13T10:53:55.372Z,9.60
2023-01-13T10:54:58.191Z,9.60
2023-01-13T10:56:02.402Z,9.50
2023-01-13T10:57:25.223Z,9.50
2023-01-13T10:58:27.919Z,9.50
2023-01-13T10:59:30.075Z,9.40
2023-01-13T11:00:34.930Z,9.40
2023-01-13T11:01:37.617Z,9.40
2023-01-13T11:02:39.600Z,9.40
2023-01-13T11:03:43.065Z,9.40
2023-01-13T11:05:02.944Z,9.40
2023-01-13T11:06:05.028Z,9.30
2023-01-13T11:07:24.390Z,9.30
2023-01-13T11:08:30.823Z,9.20
2023-01-13T11:09:33.071Z,9.20
2023-01-13T11:10:44.193Z,9.10
2023-01-13T11:11:47.415Z,9.00
2023-01-13T11:13:18.043Z,8.90
2023-01-13T11:14:39.487Z,8.90
2023-01-13T11:16:07.500Z,8.80
2023-01-13T11:17:21.717Z,8.80
2023-01-13T11:18:40.305Z,8.70
2023-01-13T11:19:52.317Z,8.70
2023-01-13T11:20:55.671Z,8.70
2023-01-13T11:22:19.185Z,8.60
2023-01-13T11:23:28.820Z,8.60
2023-01-13T11:24:40.423Z,8.70
2023-01-13T11:25:45.009Z,8.60
2023-01-13T11:27:01.836Z,8.60
2023-01-13T11:28:13.425Z,8.70
2023-01-13T11:29:44.387Z,8.60
2023-01-13T11:30:56.744Z,8.60
2023-01-13T11:32:11.806Z,8.60
2023-01-13T11:33:16.567Z,8.60
2023-01-13T11:34:32.395Z,8.50
2023-01-13T11:35:37.921Z,8.50
2023-01-13T11:36:46.313Z,8.50
2023-01-13T11:37:53.789Z,8.60
2023-01-13T11:38:59.520Z,8.60
2023-01-13T11:40:23.825Z,8.50
2023-01-13T11:41:32.382Z,8.50
2023-01-13T11:42:36.852Z,8.50
2023-01-13T11:43:47.032Z,8.40
2023-01-13T11:45:00.554Z,8.40
2023-01-13T11:46:02.742Z,8.40
2023-01-13T11:47:04.599Z,8.30
2023-01-13T11:48:12.430Z,8.30
2023-01-13T11:49:24.809Z,8.40
2023-01-13T11:50:45.333Z,8.30
2023-01-13T11:51:57.507Z,8.30
2023-01-13T11:53:23.266Z,8.20
2023-01-13T11:54:34.098Z,8.30
2023-01-13T11:56:06.092Z,8.30
2023-01-13T11:57:19.504Z,8.30
2023-01-13T11:58:38.795Z,8.30
2023-01-13T12:00:03.560Z,8.30
2023-01-13T12:01:30.828Z,8.30
2023-01-13T12:02:32.572Z,8.40
2023-01-13T12:03:45.436Z,8.40
2023-01-13T12:04:59.622Z,8.40
2023-01-13T12:06:24.931Z,8.40
2023-01-13T12:07:32.763Z,8.40
2023-01-13T12:09:11.812Z,8.40
2023-01-13T12:10:37.477Z,8.40
2023-01-13T12:12:19.417Z,8.40
2023-01-13T12:13:41.553Z,8.30
2023-01-13T12:14:58.231Z,8.30
2023-01-13T12:16:10.091Z,8.30
2023-01-13T12:17:38.398Z,8.30
2023-01-13T12:19:10.500Z,8.30
2023-01-13T12:20:39.064Z,8.30
2023-01-13T12:22:06.841Z,8.30
2023-01-13T12:23:40.487Z,8.30
2023-01-13T12:24:55.341Z,8.30
2023-01-13T12:26:05.319Z,8.30
2023-01-13T12:27:31.663Z,8.30
2023-01-13T12:28:44.676Z,8.30
2023-01-13T12:29:48.511Z,8.40
2023-01-13T12:30:54.931Z,8.40
2023-01-13T12:31:59.352Z,8.40
2023-01-13T12:33:17.302Z,8.50
2023-01-13T12:34:57.335Z,8.50
2023-01-13T12:36:08.159Z,8.60
2023-01-13T12:37:19.720Z,8.60
2023-01-13T12:38:29.510Z,8.60
2023-01-13T12:39:44.418Z,8.70
2023-01-13T12:41:03.595Z,8.70
2023-01-13T12:42:36.985Z,8.70
2023-01-13T12:44:03.072Z,8.70
2023-01-13T12:45:10.334Z,8.80
2023-01-13T12:46:21.508Z,8.80
2023-01-13T12:47:43.439Z,8.90
2023-01-13T12:48:57.520Z,8.90
2023-01-13T12:50:22.051Z,8.90
2023-01-13T12:51:36.617Z,8.90
2023-01-13T12:52:45.350Z,9.00
2023-01-13T12:53:47.120Z,9.00
2023-01-13T12:54:48.792Z,9.00
2023-01-13T12:55:52.245Z,9.00
2023-01-13T12:56:54.700Z,9.00
2023-01-13T12:58:14.420Z,9.00
2023-01-13T12:59:19.438Z,9.00
2023-01-13T13:00:21.355Z,9.00
2023-01-13T13:01:35.553Z,9.00
2023-01-13T13:02:42.563Z,9.00
2023-01-13T13:04:13.264Z,9.00
2023-01-13T13:52:58.742Z,8.80
2023-01-13T13:54:02.717Z,8.80
2023-01-13T13:55:19.671Z,9.00
2023-01-13T13:56:24.870Z,8.90
2023-01-13T13:57:39.445Z,8.90
2023-01-13T13:58:41.693Z,8.90
2023-01-13T13:59:43.564Z,9.00
2023-01-13T14:00:48.292Z,9.00
2023-01-13T14:02:01.006Z,9.10
2023-01-13T14:03:18.072Z,9.00
2023-01-13T14:04:27.992Z,9.00
2023-01-13T14:05:31.731Z,9.00
2023-01-13T14:06:34.022Z,9.00
2023-01-13T14:07:48.049Z,9.10
2023-01-13T14:08:50.722Z,9.00
2023-01-13T14:09:54.673Z,8.90
2023-01-13T14:10:56.735Z,9.10
2023-01-13T14:12:04.453Z,9.10
2023-01-13T14:13:21.003Z,9.10
2023-01-13T14:14:23.021Z,9.00
2023-01-13T14:15:27.545Z,9.00
2023-01-13T14:16:29.412Z,8.90
2023-01-13T14:17:31.357Z,8.70
2023-01-13T14:18:41.774Z,8.70
2023-01-13T14:19:47.685Z,8.60
2023-01-13T14:20:53.069Z,8.50
2023-01-13T14:21:55.308Z,8.40
2023-01-13T14:23:01.488Z,8.40
2023-01-13T14:24:14.135Z,8.40
2023-01-13T14:25:37.435Z,8.40
2023-01-13T14:26:39.336Z,8.30
2023-01-13T14:27:42.970Z,8.20
2023-01-13T14:28:45.039Z,8.20
2023-01-13T14:29:46.909Z,8.10
2023-01-13T14:30:50.663Z,8.00
2023-01-13T14:31:54.537Z,7.90
2023-01-13T14:32:57.122Z,7.90
2023-01-13T14:34:02.018Z,7.80
2023-01-13T14:35:07.762Z,7.80
2023-01-13T14:36:17.514Z,7.70
2023-01-13T14:37:40.986Z,7.60
2023-01-13T14:38:45.465Z,7.60
2023-01-13T14:39:47.165Z,7.50
2023-01-13T14:40:49.465Z,7.50
2023-01-13T14:41:52.959Z,7.50
2023-01-13T14:43:22.881Z,7.40
2023-01-13T14:44:36.475Z,7.40
2023-01-13T14:45:38.349Z,7.30
2023-01-13T14:46:42.492Z,7.30
2023-01-13T14:47:52.983Z,7.20
2023-01-13T14:49:01.307Z,7.20
2023-01-13T14:50:19.340Z,7.20
2023-01-13T14:51:25.015Z,7.20
2023-01-13T14:52:30.198Z,7.20
2023-01-13T14:53:36.802Z,7.20
2023-01-13T14:54:41.323Z,7.20
2023-01-13T14:55:43.139Z,7.20
2023-01-13T14:56:51.077Z,7.20
2023-01-13T14:57:53.093Z,7.10
2023-01-13T14:58:54.970Z,7.10
2023-01-13T15:00:08.041Z,7.10
2023-01-13T15:01:36.185Z,7.00
2023-01-13T15:02:41.519Z,7.00
2023-01-13T15:03:43.299Z,6.90
2023-01-13T15:04:44.987Z,6.90
2023-01-13T15:05:52.601Z,7.00
2023-01-13T15:06:57.049Z,6.90
2023-01-13T15:08:03.414Z,6.90
2023-01-13T15:09:12.637Z,6.90
2023-01-13T15:10:17.009Z,6.90
2023-01-13T15:11:26.800Z,6.90
2023-01-13T15:12:39.691Z,6.90
2023-01-13T15:13:52.855Z,6.90
2023-01-13T15:14:55.593Z,7.00
2023-01-13T15:16:00.261Z,6.90
2023-01-13T15:17:03.307Z,7.00
2023-01-13T15:18:17.368Z,7.00
2023-01-13T15:19:19.036Z,7.10
2023-01-13T15:20:23.915Z,7.00
2023-01-13T15:21:26.581Z,7.00
2023-01-13T15:22:29.721Z,6.90
2023-01-13T15:23:31.445Z,6.90
2023-01-13T15:24:33.181Z,6.90
2023-01-13T15:25:37.450Z,6.90
2023-01-13T15:26:39.172Z,6.80
2023-01-13T15:27:43.190Z,6.80
2023-01-13T15:28:45.484Z,6.80
2023-01-13T15:29:47.201Z,6.80
2023-01-13T15:30:50.483Z,6.80
2023-01-13T15:31:52.273Z,6.70
2023-01-13T15:32:55.860Z,6.70
2023-01-13T15:33:58.874Z,6.80
2023-01-13T15:35:00.607Z,6.70